Home > Products > Valid Products > TAF

000
FTUS43 KGID 020129 AAA
TAFGRI
TAF AMD
KGRI 020129Z 0201/0224 03007KT P6SM SCT060 BKN150
      TEMPO 0201/0203 5SM -TSRA SCT030CB BKN060
     FM020800 35011KT 6SM -SHRA SCT020 OVC060
      TEMPO 0208/0212 3SM RA BR SCT015 BKN025
     FM021200 35014G18KT 6SM -RA BKN025
     FM021600 34018G26KT P6SM SCT025 BKN050
     FM022000 32012KT P6SM SCT050=



000
FTUS43 KGID 020129 AAA
TAFGRI
TAF AMD
KGRI 020129Z 0201/0224 03007KT P6SM SCT060 BKN150
      TEMPO 0201/0203 5SM -TSRA SCT030CB BKN060
     FM020800 35011KT 6SM -SHRA SCT020 OVC060
      TEMPO 0208/0212 3SM RA BR SCT015 BKN025
     FM021200 35014G18KT 6SM -RA BKN025
     FM021600 34018G26KT P6SM SCT025 BKN050
     FM022000 32012KT P6SM SCT050=



000
FTUS43 KGID 012328
TAFGRI
TAF
KGRI 012328Z 0200/0224 03007KT P6SM SCT060 BKN150
     FM020800 35011KT 6SM -SHRA SCT020 OVC060
      TEMPO 0208/0212 3SM RA BR SCT015 BKN025
     FM021200 35014G18KT 6SM -RA BKN025
     FM021600 34018G26KT P6SM SCT025 BKN050
     FM022000 32012KT P6SM SCT050=



000
FTUS43 KGID 012328
TAFGRI
TAF
KGRI 012328Z 0200/0224 03007KT P6SM SCT060 BKN150
     FM020800 35011KT 6SM -SHRA SCT020 OVC060
      TEMPO 0208/0212 3SM RA BR SCT015 BKN025
     FM021200 35014G18KT 6SM -RA BKN025
     FM021600 34018G26KT P6SM SCT025 BKN050
     FM022000 32012KT P6SM SCT050=



000
FTUS43 KGID 011720
TAFGRI
TAF
KGRI 011720Z 0118/0218 VRB06KT P6SM SCT150
     FM020000 03007KT P6SM BKN150
     FM021000 35011KT 6SM -SHRA SCT020 OVC050
     FM021400 34016G21KT 6SM -SHRA OVC020=



000
FTUS43 KGID 011720
TAFGRI
TAF
KGRI 011720Z 0118/0218 VRB06KT P6SM SCT150
     FM020000 03007KT P6SM BKN150
     FM021000 35011KT 6SM -SHRA SCT020 OVC050
     FM021400 34016G21KT 6SM -SHRA OVC020=



000
FTUS43 KGID 011529 AAC
TAFGRI
TAF AMD
KGRI 011529Z 0115/0212 VRB05KT P6SM SCT005
      TEMPO 0115/0117 BKN005
     FM011700 34006KT P6SM SCT200
     FM020000 02007KT P6SM BKN200
     FM021000 35011KT 6SM -SHRA SCT025 OVC060=



000
FTUS43 KGID 011529 AAC
TAFGRI
TAF AMD
KGRI 011529Z 0115/0212 VRB05KT P6SM SCT005
      TEMPO 0115/0117 BKN005
     FM011700 34006KT P6SM SCT200
     FM020000 02007KT P6SM BKN200
     FM021000 35011KT 6SM -SHRA SCT025 OVC060=



000
FTUS43 KGID 011406 AAB
TAFGRI
TAF AMD
KGRI 011406Z 0114/0212 VRB05KT 4SM BR SCT005
      TEMPO 0114/0116 1/2SM FG OVC001
     FM011600 34006KT P6SM SCT200
     FM020000 02007KT P6SM BKN200
     FM021000 35011KT 6SM -SHRA SCT025 OVC060=



000
FTUS43 KGID 011406 AAB
TAFGRI
TAF AMD
KGRI 011406Z 0114/0212 VRB05KT 4SM BR SCT005
      TEMPO 0114/0116 1/2SM FG OVC001
     FM011600 34006KT P6SM SCT200
     FM020000 02007KT P6SM BKN200
     FM021000 35011KT 6SM -SHRA SCT025 OVC060=



000
FTUS43 KGID 011324 AAA
TAFGRI
TAF AMD
KGRI 011324Z 0113/0212 30003KT 4SM BR SCT005
      TEMPO 0113/0114 1/4SM FG OVC001
     FM011500 34006KT P6SM SCT200
     FM020000 02007KT P6SM BKN200
     FM021000 35011KT 6SM -SHRA SCT025 OVC060=



000
FTUS43 KGID 011324 AAA
TAFGRI
TAF AMD
KGRI 011324Z 0113/0212 30003KT 4SM BR SCT005
      TEMPO 0113/0114 1/4SM FG OVC001
     FM011500 34006KT P6SM SCT200
     FM020000 02007KT P6SM BKN200
     FM021000 35011KT 6SM -SHRA SCT025 OVC060=



000
FTUS43 KGID 011132
TAFGRI
TAF
KGRI 011132Z 0112/0212 30003KT 4SM BR SCT005
      TEMPO 0112/0114 1/2SM FG
     FM011400 34006KT P6SM SCT200
     FM020000 02007KT P6SM BKN200
     FM021000 35011KT 6SM -SHRA SCT025 OVC060=



000
FTUS43 KGID 011132
TAFGRI
TAF
KGRI 011132Z 0112/0212 30003KT 4SM BR SCT005
      TEMPO 0112/0114 1/2SM FG
     FM011400 34006KT P6SM SCT200
     FM020000 02007KT P6SM BKN200
     FM021000 35011KT 6SM -SHRA SCT025 OVC060=



000
FTUS43 KGID 010537
TAFGRI
TAF
KGRI 010537Z 0106/0206 14007KT 3SM BR OVC002
      TEMPO 0106/0110 3/4SM BR
     FM011000 VRB04KT 1/2SM FG OVC002
     FM011500 VRB03KT 4SM BR BKN004
     FM011700 VRB06KT P6SM SCT200
     FM020000 02007KT P6SM BKN150=



000
FTUS43 KGID 010537
TAFGRI
TAF
KGRI 010537Z 0106/0206 14007KT 3SM BR OVC002
      TEMPO 0106/0110 3/4SM BR
     FM011000 VRB04KT 1/2SM FG OVC002
     FM011500 VRB03KT 4SM BR BKN004
     FM011700 VRB06KT P6SM SCT200
     FM020000 02007KT P6SM BKN150=



000
FTUS43 KGID 010308 AAA
TAFGRI
TAF AMD
KGRI 010308Z 0103/0124 14006KT 5SM BR BKN004
     FM010330 VRB03KT 2SM BR BKN002
      TEMPO 0104/0105 1/2SM FG OVC001
     FM010500 VRB03KT 1/2SM FG OVC001
     FM011300 VRB03KT 5SM BR BKN004
     FM011500 27006KT P6SM SCT050 BKN250=



000
FTUS43 KGID 010308 AAA
TAFGRI
TAF AMD
KGRI 010308Z 0103/0124 14006KT 5SM BR BKN004
     FM010330 VRB03KT 2SM BR BKN002
      TEMPO 0104/0105 1/2SM FG OVC001
     FM010500 VRB03KT 1/2SM FG OVC001
     FM011300 VRB03KT 5SM BR BKN004
     FM011500 27006KT P6SM SCT050 BKN250=



000
FTUS43 KGID 302326
TAFGRI
TAF
KGRI 302326Z 0100/0124 17013KT P6SM FEW060 SCT150
     FM010400 VRB06KT P6SM SCT150
     FM010900 VRB03KT 5SM BR FEW010 SCT150
     FM011500 27006KT P6SM SCT050 BKN250=



000
FTUS43 KGID 302326
TAFGRI
TAF
KGRI 302326Z 0100/0124 17013KT P6SM FEW060 SCT150
     FM010400 VRB06KT P6SM SCT150
     FM010900 VRB03KT 5SM BR FEW010 SCT150
     FM011500 27006KT P6SM SCT050 BKN250=



000
FTUS43 KGID 301909 AAA
TAFGRI
TAF AMD
KGRI 301909Z 3019/0118 17013KT P6SM FEW150
     FM010500 VRB06KT P6SM SCT150=



000
FTUS43 KGID 301909 AAA
TAFGRI
TAF AMD
KGRI 301909Z 3019/0118 17013KT P6SM FEW150
     FM010500 VRB06KT P6SM SCT150=



000
FTUS43 KGID 301727
TAFGRI
TAF
KGRI 301727Z 3018/0118 17010KT P6SM FEW150
     FM010500 VRB06KT P6SM SCT150=



000
FTUS43 KGID 301727
TAFGRI
TAF
KGRI 301727Z 3018/0118 17010KT P6SM FEW150
     FM010500 VRB06KT P6SM SCT150=



000
FTUS43 KGID 301448 AAB
TAFGRI
TAF AMD
KGRI 301448Z 3015/0112 20012G19KT P6SM SCT028
     FM301600 20012G19KT P6SM FEW040
     FM010000 18006KT P6SM SCT200=



000
FTUS43 KGID 301448 AAB
TAFGRI
TAF AMD
KGRI 301448Z 3015/0112 20012G19KT P6SM SCT028
     FM301600 20012G19KT P6SM FEW040
     FM010000 18006KT P6SM SCT200=



000
FTUS43 KGID 301439 AAA
TAFGRI
TAF AMD
KGRI 301439Z 3015/0112 20012G19KT P6SM BKN028
     FM301600 20012G19KT P6SM FEW040
     FM010000 18006KT P6SM SCT200=



000
FTUS43 KGID 301439 AAA
TAFGRI
TAF AMD
KGRI 301439Z 3015/0112 20012G19KT P6SM BKN028
     FM301600 20012G19KT P6SM FEW040
     FM010000 18006KT P6SM SCT200=



000
FTUS43 KGID 301123
TAFGRI
TAF
KGRI 301123Z 3012/0112 17012KT P6SM SCT060 BKN100 WS010/19042KT
     FM301400 20012G19KT P6SM FEW040
     FM010000 18006KT P6SM SCT200=



000
FTUS43 KGID 300700 AAA
TAFGRI
TAF AMD
KGRI 300700Z 3007/0106 14010KT P6SM VCSH SCT060 BKN100
      WS006/18045KT
     FM301500 19012KT P6SM FEW040
     FM010000 16007KT P6SM SCT200=



000
FTUS43 KGID 300700 AAA
TAFGRI
TAF AMD
KGRI 300700Z 3007/0106 14010KT P6SM VCSH SCT060 BKN100
      WS006/18045KT
     FM301500 19012KT P6SM FEW040
     FM010000 16007KT P6SM SCT200=



000
FTUS43 KGID 300541
TAFGRI
TAF
KGRI 300541Z 3006/0106 14010KT P6SM SCT060 BKN090
     FM300700 24010G20KT 6SM SHRA VCTS SCT030 BKN060CB
     FM300900 15012KT P6SM SCT080 WS006/18045KT
     FM301500 19012KT P6SM FEW040
     FM010000 16007KT P6SM SCT200=



000
FTUS43 KGID 300541
TAFGRI
TAF
KGRI 300541Z 3006/0106 14010KT P6SM SCT060 BKN090
     FM300700 24010G20KT 6SM SHRA VCTS SCT030 BKN060CB
     FM300900 15012KT P6SM SCT080 WS006/18045KT
     FM301500 19012KT P6SM FEW040
     FM010000 16007KT P6SM SCT200=



000
FTUS43 KGID 292337
TAFGRI
TAF
KGRI 292337Z 3000/3024 13011KT P6SM SCT250
     FM300600 13014G21KT P6SM VCTS OVC100CB
     FM301100 15013KT P6SM VCTS OVC100CB WS015/19044KT
     FM301400 18012KT P6SM OVC070
     FM301700 20013G20KT P6SM SCT200=



000
FTUS43 KGID 292337
TAFGRI
TAF
KGRI 292337Z 3000/3024 13011KT P6SM SCT250
     FM300600 13014G21KT P6SM VCTS OVC100CB
     FM301100 15013KT P6SM VCTS OVC100CB WS015/19044KT
     FM301400 18012KT P6SM OVC070
     FM301700 20013G20KT P6SM SCT200=



000
FTUS43 KGID 291738
TAFGRI
TAF
KGRI 291738Z 2918/3018 16011G16KT P6SM SCT050 SCT150
     FM300000 14009KT P6SM SCT050
     FM300900 15014G20KT 6SM -SHRA SCT020 OVC060 WS012/19044KT
     FM301500 18014G20KT P6SM SCT060=



000
FTUS43 KGID 291738
TAFGRI
TAF
KGRI 291738Z 2918/3018 16011G16KT P6SM SCT050 SCT150
     FM300000 14009KT P6SM SCT050
     FM300900 15014G20KT 6SM -SHRA SCT020 OVC060 WS012/19044KT
     FM301500 18014G20KT P6SM SCT060=



000
FTUS43 KGID 291120
TAFGRI
TAF
KGRI 291120Z 2912/3012 17007KT P6SM SCT100
     FM291900 15014G20KT P6SM SCT050 SCT150
     FM300000 13011KT P6SM SCT050
     FM300900 15014G20KT P6SM VCSH SCT020 OVC060=



000
FTUS43 KGID 291120
TAFGRI
TAF
KGRI 291120Z 2912/3012 17007KT P6SM SCT100
     FM291900 15014G20KT P6SM SCT050 SCT150
     FM300000 13011KT P6SM SCT050
     FM300900 15014G20KT P6SM VCSH SCT020 OVC060=



000
FTUS43 KGID 290520
TAFGRI
TAF
KGRI 290520Z 2906/3006 17007KT P6SM FEW080 FEW250
     FM291800 17014G21KT P6SM SCT050 SCT250
     FM300300 14012KT P6SM BKN060=



000
FTUS43 KGID 290520
TAFGRI
TAF
KGRI 290520Z 2906/3006 17007KT P6SM FEW080 FEW250
     FM291800 17014G21KT P6SM SCT050 SCT250
     FM300300 14012KT P6SM BKN060=



    US Dept of Commerce
    National Oceanic and Atmospheric Administration
    National Weather Service
    1325 East West Highway
    Silver Spring, MD 20910
    Page Author: NWS Internet Services Team
Disclaimer
Information Quality
Credits
Glossary
Privacy Policy
Freedom of Information Act (FOIA)
About Us
Career Opportunities